Cumberland Foreside, Maine
Current Conditions -  °F | °C
As of 5:51 PM on Monday 20 Oct 2014 (Local Time) from KPWM Reporting Station
Scattered Clouds Scattered Clouds  
Wind Chill: 52°   Ceiling: Unl
Heat Index: 52°   Visibility: 10mi
Dew Point: 31°   Wind: 8mph
Humidity: 45%   Direction: 250°WSW
Pressure: 29.95"   Gusts: NA
Location:  43.77°N, 70.2°W
Report Text: KPWM 202151Z 25007KT 10SM SCT200 11/M01 A2995 RMK AO2 SLP143 T01111006
Loading
Personal Weather Stations






























Interactive Weather Map
Tropical Storm Tracking
New forecast layout! Learn more

10-Day Weather Forecast

Advertisements
Track Severe Weather on mobile